Terminal Aerodrome Forecast
Issued by NWS Pueblo, CO

Home | Current Version | Previous Version | Text Only | Print | Product List | Glossary On
Versions: 1 2 3 4 5 6 7 8 9 10 11 12 13 14 15 16 17 18 19 20 21 22 23 24 25 26 27 28 29 30 31 32 33 34 35 36 37 38
000
FTUS45 KPUB 171821 AAA
TAFCOS
TAF AMD
KCOS 171821Z 1718/1818 24015G30KT P6SM SCT120 SCT200
     FM172100 26030G45KT P6SM FEW080 SCT120 BKN150
     FM172300 27023G35KT P6SM SCT110 BKN150
     FM180500 34030G45KT P6SM VCSH SCT030 BKN060
     FM181100 35017KT P6SM FEW060
     FM181700 17006KT P6SM SKC=

USA.gov is the U.S. government's official web portal to all federal, state and local government web resources and services.